Overview Statistics Trail Chart Weather Telemetry Raw packets
 

This is the latest recevied telemetry packets stored in our database for station/object IU5IBB-12. If no packets are shown the sender has not sent any telemetry packets the latest 10 day(s).

Telemetry packets is used to share measurements like repeteater parameters, battery voltage, radiation readings (or any other measurements).

<< 1 2 3 4 >>
Time Press* Temp.in* Hum* QNH* Temp.out*
1788564994 993.5 hPa 33.3 C deg 41.2 % 1021.6 hPa 0 C deg
1788563310 993.7 hPa 33.3 C deg 41.1 % 1021.7 hPa 0 C deg
1788561368 993.7 hPa 33.3 C deg 41.1 % 1021.7 hPa 0 C deg
1788559551 993.8 hPa 33.3 C deg 41 % 1021.9 hPa 0 C deg
1788555973 993.8 hPa 33.3 C deg 41 % 1021.9 hPa 0 C deg
1788555918 993.8 hPa 33.3 C deg 41 % 1021.9 hPa 0 C deg
1788552359 994 hPa 33.3 C deg 40.8 % 1022 hPa 0 C deg
1788550473 993.8 hPa 33.2 C deg 40.8 % 1021.9 hPa 0 C deg
1788545044 993 hPa 33.2 C deg 40.3 % 1021 hPa 0 C deg
1788541437 992.7 hPa 33.2 C deg 39.8 % 1020.7 hPa 0 C deg
1788537776 992.8 hPa 33.1 C deg 39.7 % 1020.8 hPa 0 C deg
1788535961 992.8 hPa 33.1 C deg 39.4 % 1020.9 hPa 0 C deg
1788534154 992.7 hPa 33.1 C deg 39.5 % 1020.8 hPa 0 C deg
1788532333 992.7 hPa 33 C deg 39.3 % 1020.8 hPa 0 C deg
1788532333 992.7 hPa 33 C deg 39.3 % 1020.8 hPa 0 C deg
1788530531 992.9 hPa 33 C deg 39.8 % 1020.9 hPa 0 C deg
1788528713 993.1 hPa 33 C deg 39.8 % 1021.2 hPa 0 C deg
1788526881 993.3 hPa 32.9 C deg 40.1 % 1021.4 hPa 0 C deg
1788525120 993.5 hPa 32.9 C deg 40.1 % 1021.6 hPa 0 C deg
1788521439 993.7 hPa 32.9 C deg 39.9 % 1021.8 hPa 0 C deg
1788519746 993.9 hPa 32.9 C deg 39.9 % 1022 hPa 0 C deg
1788517835 993.8 hPa 32.9 C deg 41.1 % 1021.9 hPa 0 C deg
1788514178 994.3 hPa 32.9 C deg 41.7 % 1022.4 hPa 0 C deg
1788512384 994.3 hPa 32.9 C deg 41.7 % 1022.4 hPa 0 C deg
1788512383 994.3 hPa 32.9 C deg 41.7 % 1022.4 hPa 0 C deg
*Used Equation Coefficients:
Press: 0, 1, 0
Temp.in: 0, 1, 0
Hum: 0, 1, 0
QNH: 0, 1, 0
Temp.out: 0, 1, 0

  • The parameter names for the analog channels will be Value1, Value2, Value3 (up to Value5) if station has not sent a PARAM-packet that specifies the parameter names for each analog channel.
  • Each analog value is a decimal number between 000 and 255 (according to APRS specifications). The receiver use the telemetry equation coefficientsto to restore the original sensor values. If no EQNS-packet with equation coefficients is sent we will show the values as is (this corresponds to the equation coefficients a=0, b=1 and c=0).
    The sent equation coefficients is used in the equation: a * value2 + b * value + c.
  • The units for the analog values will not be shown if station has not sent a UNIT-packet specifying what unit's to use.
  • The parameter names for the digital bits will be Bit1, Bit2, Bit3 (up to Bit8) if station has not sent a PARAM-packet that specifies the parameter names for each digital bit.
  • All bit labels will be named "On" if station has not sent a UNIT-packet that specifies the label of each bit.
  • A bit is considered to be On when the bit is 1 if station has not sent a BITS-packet that specifies another "Bit sense" (a BITS-packet specify the state of the bits that match the BIT labels)